createdAt,value
2023-01-09T00:01:31.921Z,21.85
2023-01-09T00:06:24.887Z,21.60
2023-01-09T00:11:18.060Z,24.80
2023-01-09T00:16:10.853Z,26.58
2023-01-09T00:21:05.757Z,22.80
2023-01-09T00:26:07.116Z,22.42
2023-01-09T00:31:01.780Z,21.55
2023-01-09T00:35:55.640Z,21.40
2023-01-09T00:40:49.591Z,19.63
2023-01-09T00:45:44.003Z,24.67
2023-01-09T00:50:38.597Z,18.23
2023-01-09T00:55:32.657Z,19.73
2023-01-09T01:00:26.676Z,16.10
2023-01-09T01:05:39.136Z,18.25
2023-01-09T01:10:32.902Z,17.05
2023-01-09T01:15:30.091Z,16.92
2023-01-09T01:20:23.404Z,14.55
2023-01-09T01:25:20.674Z,14.82
2023-01-09T01:30:16.315Z,16.23
2023-01-09T01:35:10.657Z,14.80
2023-01-09T01:40:06.069Z,14.07
2023-01-09T01:45:13.833Z,17.50
2023-01-09T01:50:27.371Z,14.32
2023-01-09T01:55:21.834Z,16.73
2023-01-09T02:00:17.770Z,12.77
2023-01-09T02:05:12.052Z,12.32
2023-01-09T02:10:06.442Z,13.52
2023-01-09T02:15:03.028Z,12.05
2023-01-09T02:20:54.699Z,12.77
2023-01-09T02:26:24.646Z,11.93
2023-01-09T02:31:45.781Z,11.82
2023-01-09T02:37:01.665Z,11.70
2023-01-09T02:42:04.516Z,12.45
2023-01-09T02:47:09.367Z,12.93
2023-01-09T02:52:40.803Z,10.75
2023-01-09T02:58:04.898Z,9.48
2023-01-09T03:03:06.503Z,10.40
2023-01-09T03:08:07.238Z,9.63
2023-01-09T03:13:06.802Z,11.10
2023-01-09T03:18:02.121Z,10.40
2023-01-09T03:23:03.289Z,8.95
2023-01-09T03:28:05.498Z,8.68
2023-01-09T03:32:59.631Z,9.18
2023-01-09T03:37:52.674Z,9.15
2023-01-09T03:42:46.732Z,9.05
2023-01-09T03:47:40.105Z,8.02
2023-01-09T03:52:33.546Z,8.27
2023-01-09T03:57:26.520Z,9.05
2023-01-09T04:02:20.755Z,8.55
2023-01-09T04:07:14.518Z,10.00
2023-01-09T04:12:08.720Z,9.95
2023-01-09T04:17:02.781Z,7.65
2023-01-09T04:21:56.282Z,7.97
2023-01-09T04:26:49.239Z,7.25
2023-01-09T04:31:42.845Z,6.80
2023-01-09T04:36:36.858Z,7.10
2023-01-09T04:41:48.619Z,6.85
2023-01-09T04:46:41.666Z,6.47
2023-01-09T04:51:35.259Z,6.78
2023-01-09T04:56:28.797Z,7.93
2023-01-09T05:01:22.720Z,6.85
2023-01-09T05:06:16.249Z,6.20
2023-01-09T05:11:10.689Z,5.93
2023-01-09T05:16:07.830Z,6.13
2023-01-09T05:21:01.344Z,6.00
2023-01-09T05:25:54.699Z,6.05
2023-01-09T05:30:48.685Z,4.95
2023-01-09T05:35:41.677Z,5.38
2023-01-09T05:40:40.463Z,5.18
2023-01-09T05:45:33.456Z,5.68
2023-01-09T05:50:27.354Z,7.43
2023-01-09T05:55:20.936Z,5.60
2023-01-09T06:00:16.580Z,5.22
2023-01-09T06:05:09.843Z,4.72
2023-01-09T06:10:04.476Z,4.45
2023-01-09T06:15:00.582Z,4.43
2023-01-09T06:19:53.698Z,7.18
2023-01-09T06:24:47.589Z,4.45
2023-01-09T06:29:45.204Z,8.43
2023-01-09T06:34:38.873Z,4.95
2023-01-09T06:39:32.775Z,8.25
2023-01-09T06:44:26.127Z,5.38
2023-01-09T06:49:23.861Z,5.15
2023-01-09T06:54:18.090Z,4.90
2023-01-09T06:59:12.189Z,4.10
2023-01-09T07:04:06.504Z,4.07
2023-01-09T07:08:59.857Z,6.10
2023-01-09T07:13:53.628Z,8.88
2023-01-09T07:18:47.511Z,5.82
2023-01-09T07:23:40.887Z,3.90
2023-01-09T07:28:34.499Z,5.57
2023-01-09T07:33:28.755Z,4.97
2023-01-09T07:38:22.755Z,8.45
2023-01-09T07:43:16.688Z,8.07
2023-01-09T07:48:11.276Z,6.30
2023-01-09T07:53:04.817Z,5.53
2023-01-09T07:57:58.695Z,5.30
2023-01-09T08:02:54.936Z,5.80
2023-01-09T08:07:48.809Z,4.32
2023-01-09T08:12:43.882Z,3.20
2023-01-09T08:17:37.721Z,5.57
2023-01-09T08:22:31.212Z,4.03
2023-01-09T08:27:25.118Z,4.15
2023-01-09T08:32:18.116Z,3.40
2023-01-09T08:37:11.162Z,2.35
2023-01-09T08:42:23.913Z,4.80
2023-01-09T08:47:21.483Z,3.08
2023-01-09T08:52:14.851Z,4.72
2023-01-09T08:57:08.238Z,4.65
2023-01-09T09:02:02.377Z,2.85
2023-01-09T09:06:56.684Z,3.70
2023-01-09T09:11:50.217Z,4.03
2023-01-09T09:16:43.513Z,3.35
2023-01-09T09:21:36.980Z,3.53
2023-01-09T09:26:30.685Z,5.57
2023-01-09T09:31:24.758Z,8.90
2023-01-09T09:36:18.905Z,5.93
2023-01-09T09:41:47.151Z,5.05
2023-01-09T09:47:09.182Z,6.15
2023-01-09T09:52:14.857Z,29.08
2023-01-09T09:57:15.291Z,14.77
2023-01-09T10:02:40.227Z,13.32
2023-01-09T10:07:42.178Z,7.72
2023-01-09T10:12:57.020Z,10.07
2023-01-09T10:17:50.118Z,7.22
2023-01-09T10:23:00.658Z,8.25
2023-01-09T10:28:05.199Z,5.83
2023-01-09T10:33:19.058Z,7.82
2023-01-09T10:38:18.836Z,5.47
2023-01-09T10:43:30.071Z,6.15
2023-01-09T10:48:37.941Z,7.13
2023-01-09T10:53:41.824Z,5.40
2023-01-09T10:58:35.648Z,6.10
2023-01-09T11:03:29.588Z,7.28
2023-01-09T11:08:44.925Z,6.90
2023-01-09T11:13:46.856Z,7.30
2023-01-09T11:18:55.210Z,6.93
2023-01-09T11:23:51.000Z,6.22
2023-01-09T11:28:46.719Z,4.22
2023-01-09T11:33:51.122Z,6.40
2023-01-09T11:38:58.733Z,8.63
2023-01-09T11:43:54.968Z,5.22
2023-01-09T11:48:57.438Z,3.85
2023-01-09T11:54:30.999Z,4.47
2023-01-09T11:59:48.463Z,5.25
2023-01-09T12:04:55.810Z,4.57
2023-01-09T12:09:51.388Z,5.32
2023-01-09T12:15:10.203Z,5.45
2023-01-09T12:20:53.817Z,5.68
2023-01-09T12:26:02.088Z,8.48
2023-01-09T12:31:11.139Z,4.90
2023-01-09T12:36:41.100Z,5.20
2023-01-09T12:41:45.662Z,6.05
2023-01-09T12:47:01.058Z,5.03
2023-01-09T12:52:18.300Z,8.07
2023-01-09T12:57:51.886Z,7.85
2023-01-09T13:02:44.319Z,5.35
2023-01-09T13:07:50.794Z,9.15
2023-01-09T13:13:09.687Z,12.73
2023-01-09T13:18:13.456Z,14.68
2023-01-09T13:23:28.794Z,14.48
2023-01-09T13:29:04.016Z,12.57
2023-01-09T13:34:02.896Z,12.80
2023-01-09T13:39:01.139Z,10.75
2023-01-09T13:44:24.934Z,13.68
2023-01-09T13:49:44.322Z,12.52
2023-01-09T13:54:51.790Z,9.82
2023-01-09T13:59:46.354Z,12.32
2023-01-09T14:04:44.586Z,9.50
2023-01-09T14:09:38.643Z,9.63
2023-01-09T14:14:35.074Z,10.35
2023-01-09T14:19:39.675Z,8.90
2023-01-09T14:25:05.964Z,7.63
2023-01-09T14:30:26.915Z,7.38
2023-01-09T14:35:28.486Z,8.18
2023-01-09T14:40:24.281Z,9.80
2023-01-09T14:45:38.316Z,7.90
2023-01-09T14:50:55.989Z,6.00
2023-01-09T14:56:00.604Z,8.52
2023-01-09T15:01:08.744Z,8.43
2023-01-09T15:06:02.927Z,10.85
2023-01-09T15:10:58.310Z,5.00
2023-01-09T15:15:51.137Z,5.18
2023-01-09T15:20:44.668Z,6.78
2023-01-09T15:25:40.671Z,5.85
2023-01-09T15:30:35.915Z,5.30
2023-01-09T15:35:29.557Z,5.68
2023-01-09T15:41:02.489Z,6.03
2023-01-09T15:45:57.329Z,5.60
2023-01-09T15:51:18.963Z,7.60
2023-01-09T15:56:20.764Z,6.78
2023-01-09T16:01:42.042Z,8.38
2023-01-09T16:06:37.968Z,6.68
2023-01-09T16:11:38.288Z,9.50
2023-01-09T16:16:35.771Z,7.45
2023-01-09T16:21:38.197Z,7.85
2023-01-09T16:26:33.157Z,8.77
2023-01-09T16:31:30.572Z,8.63
2023-01-09T16:36:23.776Z,9.40
2023-01-09T16:41:40.596Z,8.00
2023-01-09T16:46:36.065Z,8.05
2023-01-09T16:51:30.038Z,7.72
2023-01-09T16:56:49.203Z,6.15
2023-01-09T17:01:44.285Z,8.52
2023-01-09T17:06:39.986Z,6.72
2023-01-09T17:11:33.345Z,7.13
2023-01-09T17:16:26.650Z,6.82
2023-01-09T17:21:22.638Z,7.20
2023-01-09T17:26:39.985Z,6.45
2023-01-09T17:31:35.425Z,6.70
2023-01-09T17:36:32.678Z,6.53
2023-01-09T17:41:29.257Z,5.85
2023-01-09T17:46:48.288Z,7.70
2023-01-09T17:51:42.161Z,6.82
2023-01-09T17:56:38.731Z,8.10
2023-01-09T18:01:32.595Z,5.95
2023-01-09T18:06:26.959Z,6.80
2023-01-09T18:11:22.175Z,6.47
2023-01-09T18:16:18.687Z,9.60
2023-01-09T18:21:15.552Z,13.82
2023-01-09T18:26:10.341Z,26.63
2023-01-09T18:31:03.797Z,26.05
2023-01-09T18:35:57.259Z,24.30
2023-01-09T18:40:51.114Z,22.00
2023-01-09T18:45:45.200Z,20.33
2023-01-09T18:50:38.528Z,19.63
2023-01-09T18:55:32.204Z,18.50
2023-01-09T19:00:25.549Z,20.20
2023-01-09T19:05:19.424Z,16.27
2023-01-09T19:10:13.810Z,17.55
2023-01-09T19:15:11.746Z,13.85
2023-01-09T19:20:05.548Z,13.60
2023-01-09T19:24:59.041Z,14.48
2023-01-09T19:29:53.193Z,13.43
2023-01-09T19:34:47.311Z,16.08
2023-01-09T19:39:41.191Z,16.13
2023-01-09T19:44:34.887Z,13.70
2023-01-09T19:49:28.622Z,12.15
2023-01-09T19:54:21.210Z,14.48
2023-01-09T19:59:16.163Z,12.95
2023-01-09T20:04:13.861Z,12.88
2023-01-09T20:09:08.265Z,12.30
2023-01-09T20:14:01.130Z,9.88
2023-01-09T20:18:57.699Z,10.02
2023-01-09T20:23:54.057Z,11.45
2023-01-09T20:28:48.031Z,10.73
2023-01-09T20:33:42.152Z,12.30
2023-01-09T20:38:35.787Z,13.75
2023-01-09T20:43:29.788Z,15.07
2023-01-09T20:48:23.355Z,27.60
2023-01-09T20:53:17.263Z,11.90
2023-01-09T20:58:11.647Z,10.90
2023-01-09T21:03:06.174Z,11.40
2023-01-09T21:08:00.329Z,13.23
2023-01-09T21:12:54.697Z,8.32
2023-01-09T21:17:48.369Z,20.15
2023-01-09T21:22:41.988Z,10.82
2023-01-09T21:27:40.700Z,23.00
2023-01-09T21:32:33.712Z,9.65
2023-01-09T21:37:29.828Z,9.85
2023-01-09T21:42:41.358Z,11.40
2023-01-09T21:47:39.344Z,11.23
2023-01-09T21:52:35.684Z,9.40
2023-01-09T21:57:28.997Z,7.60
2023-01-09T22:02:22.869Z,7.03
2023-01-09T22:07:17.417Z,7.95
2023-01-09T22:12:13.450Z,8.45
2023-01-09T22:17:06.819Z,6.70
2023-01-09T22:22:00.503Z,6.13
2023-01-09T22:26:54.796Z,7.25
2023-01-09T22:31:49.138Z,9.65
2023-01-09T22:36:42.877Z,7.38
2023-01-09T22:41:36.753Z,7.65
2023-01-09T22:46:30.866Z,7.43
2023-01-09T22:51:24.908Z,6.63
2023-01-09T22:56:22.572Z,5.05
2023-01-09T23:01:15.512Z,6.25
2023-01-09T23:06:28.894Z,5.35
2023-01-09T23:11:44.563Z,4.40
2023-01-09T23:16:37.686Z,4.63
2023-01-09T23:21:31.751Z,4.43
2023-01-09T23:26:24.869Z,5.30
2023-01-09T23:31:18.467Z,5.18
2023-01-09T23:36:12.753Z,4.18
2023-01-09T23:41:09.198Z,4.88
2023-01-09T23:46:03.034Z,5.68
2023-01-09T23:50:56.820Z,6.00
2023-01-09T23:55:51.508Z,6.55
